Time;durP1;ratioP1;P1;durP2;ratioP2;P2;SDS_P1;SDS_P2;PMS_P1;PMS_P2;Temp;Humidity;BMP_temperature;BMP_pressure;BME280_temperature;BME280_humidity;BME280_pressure;Samples;Min_cycle;Max_cycle;Signal;HPM_P1;HPM_P2
2022/08/25 00:01:58;;;;;;;4.32;3.65;;;;;;;;;;5062426;28;20222;-76
2022/08/25 00:04:24;;;;;;;6.40;3.50;;;;;;;;;;5068989;28;20222;-75
2022/08/25 00:06:54;;;;;;;5.30;3.40;;;;;;;;;;5046069;28;20275;-76
2022/08/25 00:09:21;;;;;;;4.05;3.50;;;;;;;;;;5063713;28;20232;-76
2022/08/25 00:11:48;;;;;;;3.70;3.40;;;;;;;;;;5061381;28;20222;-77
2022/08/25 00:14:21;;;;;;;6.50;3.42;;;;;;;;;;5061162;28;20225;-75
2022/08/25 00:16:46;;;;;;;3.38;2.95;;;;;;;;;;5054024;28;20233;-76
2022/08/25 00:19:18;;;;;;;4.38;3.53;;;;;;;;;;5031915;28;20225;-75
2022/08/25 00:21:43;;;;;;;3.83;3.45;;;;;;;;;;5046157;28;20613;-76
2022/08/25 00:24:12;;;;;;;4.15;3.38;;;;;;;;;;5048062;28;20226;-76
2022/08/25 00:26:42;;;;;;;6.88;3.80;;;;;;;;;;5062529;28;20298;-75
2022/08/25 00:29:11;;;;;;;4.03;3.67;;;;;;;;;;5066229;28;20271;-76
2022/08/25 00:31:37;;;;;;;3.90;3.28;;;;;;;;;;5046178;28;20267;-76
2022/08/25 00:34:06;;;;;;;7.53;3.80;;;;;;;;;;5061931;28;20217;-76
2022/08/25 00:36:34;;;;;;;5.13;3.63;;;;;;;;;;5074664;28;20217;-75
2022/08/25 00:38:59;;;;;;;4.40;3.50;;;;;;;;;;5042331;28;20245;-75
2022/08/25 00:41:25;;;;;;;6.05;3.80;;;;;;;;;;5074643;28;20607;-76
2022/08/25 00:43:55;;;;;;;6.20;3.85;;;;;;;;;;5047581;28;20234;-77
2022/08/25 00:46:30;;;;;;;3.92;3.40;;;;;;;;;;5076540;28;20268;-76
2022/08/25 00:49:05;;;;;;;3.92;3.50;;;;;;;;;;5062551;28;20221;-75
2022/08/25 00:51:35;;;;;;;4.55;3.83;;;;;;;;;;5060954;28;20233;-75
2022/08/25 00:54:01;;;;;;;3.85;3.55;;;;;;;;;;5075730;28;20225;-75
2022/08/25 00:56:30;;;;;;;5.03;3.95;;;;;;;;;;5029177;28;20768;-74
2022/08/25 00:58:58;;;;;;;4.10;3.70;;;;;;;;;;5044230;28;20209;-76
2022/08/25 01:01:24;;;;;;;4.07;3.78;;;;;;;;;;5074579;28;20220;-73
2022/08/25 01:03:50;;;;;;;6.03;3.78;;;;;;;;;;5092418;28;20214;-76
2022/08/25 01:06:17;;;;;;;6.70;4.30;;;;;;;;;;5094845;27;20546;-74
2022/08/25 01:08:45;;;;;;;8.43;4.35;;;;;;;;;;5071385;28;20213;-75
2022/08/25 01:11:12;;;;;;;4.00;3.60;;;;;;;;;;5049292;28;20216;-76
2022/08/25 01:13:46;;;;;;;4.55;3.88;;;;;;;;;;5055343;28;20699;-76
2022/08/25 01:16:12;;;;;;;4.28;3.97;;;;;;;;;;5062734;28;20214;-76
2022/08/25 01:18:51;;;;;;;4.43;4.03;;;;;;;;;;5081134;28;20213;-74
2022/08/25 01:21:18;;;;;;;5.68;3.95;;;;;;;;;;5070516;28;20706;-75
2022/08/25 01:23:46;;;;;;;4.35;3.95;;;;;;;;;;5061181;28;20676;-76
2022/08/25 01:26:15;;;;;;;7.05;4.35;;;;;;;;;;5053897;28;20642;-75
2022/08/25 01:31:35;;;;;;;5.93;3.70;;;;;;;;;;5067756;28;20224;-76
2022/08/25 01:34:04;;;;;;;4.32;3.85;;;;;;;;;;5077792;28;20214;-76
2022/08/25 01:36:35;;;;;;;4.55;4.15;;;;;;;;;;5078790;28;20233;-77
2022/08/25 01:39:01;;;;;;;4.82;4.32;;;;;;;;;;5054956;28;20742;-75
2022/08/25 01:41:37;;;;;;;5.57;4.68;;;;;;;;;;5048981;28;20217;-75
2022/08/25 01:44:06;;;;;;;4.90;3.95;;;;;;;;;;5070615;28;20225;-74
2022/08/25 01:46:31;;;;;;;4.07;3.78;;;;;;;;;;5092863;28;20221;-75
2022/08/25 01:49:01;;;;;;;4.53;4.10;;;;;;;;;;5062587;28;20221;-75
2022/08/25 01:51:28;;;;;;;4.72;3.70;;;;;;;;;;5065346;28;20221;-75
2022/08/25 01:54:01;;;;;;;9.05;5.05;;;;;;;;;;5073412;28;20221;-75
2022/08/25 01:56:26;;;;;;;4.70;4.30;;;;;;;;;;5064728;28;20240;-74
2022/08/25 01:58:52;;;;;;;4.65;4.25;;;;;;;;;;5070109;28;20221;-75
2022/08/25 02:01:19;;;;;;;6.47;4.47;;;;;;;;;;5073649;28;20305;-75
2022/08/25 02:03:51;;;;;;;5.82;4.63;;;;;;;;;;5057328;28;20836;-75
2022/08/25 02:06:22;;;;;;;7.10;4.57;;;;;;;;;;5050928;28;20222;-76
2022/08/25 02:08:52;;;;;;;5.70;4.20;;;;;;;;;;5055239;28;20224;-77
2022/08/25 02:11:17;;;;;;;4.90;4.50;;;;;;;;;;5063602;28;20339;-75
2022/08/25 02:13:48;;;;;;;5.43;4.68;;;;;;;;;;5060885;28;20842;-76
2022/08/25 02:16:21;;;;;;;5.32;4.75;;;;;;;;;;5080801;28;20304;-75
2022/08/25 02:18:47;;;;;;;6.57;4.63;;;;;;;;;;5072151;28;20229;-73
2022/08/25 02:21:13;;;;;;;5.78;4.78;;;;;;;;;;5058068;28;20214;-75
2022/08/25 02:23:41;;;;;;;5.22;4.60;;;;;;;;;;5063523;28;20230;-75
2022/08/25 02:26:09;;;;;;;9.70;5.20;;;;;;;;;;5064995;28;20590;-76
2022/08/25 02:28:36;;;;;;;5.80;4.93;;;;;;;;;;5064463;28;20342;-75
2022/08/25 02:31:03;;;;;;;5.28;4.78;;;;;;;;;;5063111;28;20225;-76
2022/08/25 02:33:31;;;;;;;5.18;4.68;;;;;;;;;;5075773;28;20209;-75
2022/08/25 02:35:59;;;;;;;5.75;4.90;;;;;;;;;;5098458;28;20714;-75
2022/08/25 02:38:26;;;;;;;5.45;4.78;;;;;;;;;;5061244;28;20229;-74
2022/08/25 02:40:55;;;;;;;5.97;4.80;;;;;;;;;;5075995;28;20245;-74
2022/08/25 02:43:25;;;;;;;7.65;5.28;;;;;;;;;;5060438;28;20257;-75
2022/08/25 02:45:54;;;;;;;6.00;5.05;;;;;;;;;;5070069;28;20659;-75
2022/08/25 02:48:20;;;;;;;5.70;5.28;;;;;;;;;;5068458;28;20213;-75
2022/08/25 02:50:51;;;;;;;7.22;5.47;;;;;;;;;;5032693;28;20248;-76
2022/08/25 02:53:19;;;;;;;5.45;4.95;;;;;;;;;;5064085;28;20263;-75
2022/08/25 02:55:47;;;;;;;5.45;4.90;;;;;;;;;;5083584;28;20275;-75
2022/08/25 02:58:13;;;;;;;5.53;5.03;;;;;;;;;;5064730;28;20214;-76
2022/08/25 03:00:39;;;;;;;5.75;5.18;;;;;;;;;;5059352;28;20269;-75
2022/08/25 03:03:07;;;;;;;9.05;5.20;;;;;;;;;;5069869;28;20256;-74
2022/08/25 03:05:37;;;;;;;6.45;5.13;;;;;;;;;;5052551;28;20214;-77
2022/08/25 03:08:08;;;;;;;5.57;5.13;;;;;;;;;;5076095;27;20221;-76
2022/08/25 03:10:36;;;;;;;5.70;5.20;;;;;;;;;;5076194;28;20625;-76
2022/08/25 03:13:01;;;;;;;6.15;5.55;;;;;;;;;;5052297;28;20229;-76
2022/08/25 03:15:27;;;;;;;5.65;5.18;;;;;;;;;;5044452;28;20304;-75
2022/08/25 03:18:03;;;;;;;7.22;5.65;;;;;;;;;;5062334;28;20237;-76
2022/08/25 03:20:28;;;;;;;6.55;5.68;;;;;;;;;;5065126;28;20232;-75
2022/08/25 03:22:56;;;;;;;7.07;5.80;;;;;;;;;;5055495;28;20229;-73
2022/08/25 03:28:23;;;;;;;6.07;5.55;;;;;;;;;;5057996;28;20218;-75
2022/08/25 03:30:54;;;;;;;6.32;5.65;;;;;;;;;;5064629;28;20221;-75
2022/08/25 03:33:20;;;;;;;7.18;6.10;;;;;;;;;;5056071;28;20226;-76
2022/08/25 03:35:45;;;;;;;8.27;5.90;;;;;;;;;;5075069;28;20225;-75
2022/08/25 03:38:13;;;;;;;7.75;6.03;;;;;;;;;;5078522;28;20231;-76
2022/08/25 03:40:39;;;;;;;6.40;5.80;;;;;;;;;;5064974;28;20224;-77
2022/08/25 03:43:07;;;;;;;6.95;5.80;;;;;;;;;;5076257;28;20229;-74
2022/08/25 03:45:32;;;;;;;7.18;5.78;;;;;;;;;;5070340;28;20230;-75
2022/08/25 03:47:58;;;;;;;6.68;6.10;;;;;;;;;;5068850;28;20298;-75
2022/08/25 03:50:25;;;;;;;7.07;6.38;;;;;;;;;;5060147;28;20221;-76
2022/08/25 03:52:55;;;;;;;6.82;5.72;;;;;;;;;;5044305;28;20225;-76
2022/08/25 03:55:26;;;;;;;6.80;6.10;;;;;;;;;;5063770;28;20226;-74
2022/08/25 03:57:52;;;;;;;7.13;6.43;;;;;;;;;;5078470;28;20245;-75
2022/08/25 04:00:18;;;;;;;6.50;5.90;;;;;;;;;;5064919;28;20252;-76
2022/08/25 04:02:48;;;;;;;7.47;6.43;;;;;;;;;;5068507;28;20327;-76
2022/08/25 04:05:13;;;;;;;6.90;6.13;;;;;;;;;;5047591;28;20280;-76
2022/08/25 04:07:43;;;;;;;8.02;6.38;;;;;;;;;;5045917;28;20213;-76
2022/08/25 04:10:09;;;;;;;7.18;6.47;;;;;;;;;;5074666;28;20734;-75
2022/08/25 04:12:37;;;;;;;6.57;5.97;;;;;;;;;;5068684;28;20304;-76
2022/08/25 04:15:11;;;;;;;7.13;6.35;;;;;;;;;;5052112;28;20588;-74
2022/08/25 04:17:37;;;;;;;7.25;6.55;;;;;;;;;;5047625;28;20311;-76
2022/08/25 04:20:03;;;;;;;7.18;6.53;;;;;;;;;;5045118;28;20218;-74
2022/08/25 04:22:33;;;;;;;8.35;7.10;;;;;;;;;;5043231;28;20225;-73
2022/08/25 04:25:01;;;;;;;7.57;6.40;;;;;;;;;;5069732;28;20223;-74
2022/08/25 04:27:27;;;;;;;8.88;7.20;;;;;;;;;;5064170;28;20216;-74
2022/08/25 04:29:55;;;;;;;7.45;6.85;;;;;;;;;;5078822;28;20217;-74
2022/08/25 04:32:23;;;;;;;7.93;7.10;;;;;;;;;;5077514;28;20763;-75
2022/08/25 04:34:51;;;;;;;7.72;6.93;;;;;;;;;;5100089;28;20229;-75
2022/08/25 04:37:16;;;;;;;8.18;7.20;;;;;;;;;;5060195;28;20757;-75
2022/08/25 04:39:42;;;;;;;7.47;6.88;;;;;;;;;;5058858;28;20218;-77
2022/08/25 04:42:07;;;;;;;8.02;6.88;;;;;;;;;;5087391;28;20248;-74
2022/08/25 04:44:35;;;;;;;9.05;7.50;;;;;;;;;;5054837;28;20221;-75
2022/08/25 04:47:03;;;;;;;8.52;7.40;;;;;;;;;;5065633;28;20214;-75
2022/08/25 04:49:33;;;;;;;9.40;7.82;;;;;;;;;;5058388;28;20220;-76
2022/08/25 04:52:04;;;;;;;8.95;7.43;;;;;;;;;;5043229;28;20248;-75
2022/08/25 04:54:29;;;;;;;8.10;7.30;;;;;;;;;;5068253;28;20221;-76
2022/08/25 04:56:55;;;;;;;8.52;7.72;;;;;;;;;;5064219;28;20299;-75
2022/08/25 04:59:22;;;;;;;8.75;7.68;;;;;;;;;;5045404;28;20217;-74
2022/08/25 05:01:50;;;;;;;7.95;7.25;;;;;;;;;;5044687;28;20224;-75
2022/08/25 05:04:16;;;;;;;8.90;7.57;;;;;;;;;;5057830;28;20232;-75
2022/08/25 05:06:42;;;;;;;9.27;8.40;;;;;;;;;;5041220;28;20218;-76
2022/08/25 05:09:10;;;;;;;9.18;7.82;;;;;;;;;;5048068;28;20278;-74
2022/08/25 05:11:36;;;;;;;8.85;7.82;;;;;;;;;;5060559;28;20224;-75
2022/08/25 05:14:10;;;;;;;9.60;7.78;;;;;;;;;;5052166;28;20226;-74
2022/08/25 05:16:35;;;;;;;9.30;8.18;;;;;;;;;;5052207;28;20244;-75
2022/08/25 05:19:01;;;;;;;8.57;7.88;;;;;;;;;;5052388;28;20864;-75
2022/08/25 05:21:29;;;;;;;11.07;7.93;;;;;;;;;;5060980;28;20213;-77
2022/08/25 05:23:58;;;;;;;8.93;8.13;;;;;;;;;;5055144;28;20232;-75
2022/08/25 05:26:24;;;;;;;8.63;7.72;;;;;;;;;;5026418;28;20221;-75
2022/08/25 05:28:50;;;;;;;8.80;7.70;;;;;;;;;;5041390;28;20654;-74
2022/08/25 05:31:19;;;;;;;10.27;8.10;;;;;;;;;;5070516;28;20679;-74
2022/08/25 05:33:45;;;;;;;7.40;6.78;;;;;;;;;;5057737;28;20707;-75
2022/08/25 05:36:13;;;;;;;8.60;7.68;;;;;;;;;;5074236;28;20218;-74
2022/08/25 05:38:39;;;;;;;7.55;6.82;;;;;;;;;;5049443;28;20804;-74
2022/08/25 05:41:09;;;;;;;7.88;7.07;;;;;;;;;;5049611;28;20228;-75
2022/08/25 05:43:39;;;;;;;8.13;7.35;;;;;;;;;;5043398;28;20226;-75
2022/08/25 05:46:07;;;;;;;8.15;7.38;;;;;;;;;;5053078;28;20222;-75
2022/08/25 05:48:37;;;;;;;8.30;7.28;;;;;;;;;;5054495;28;20263;-76
2022/08/25 05:51:08;;;;;;;9.07;6.90;;;;;;;;;;5069467;28;20222;-75
2022/08/25 05:53:34;;;;;;;8.38;7.50;;;;;;;;;;5051255;28;20326;-75
2022/08/25 05:56:03;;;;;;;8.80;6.82;;;;;;;;;;5065743;28;20305;-74
2022/08/25 05:58:28;;;;;;;8.45;7.68;;;;;;;;;;5046995;28;20300;-75
2022/08/25 06:02:39;;;;;;;7.95;7.10;;;;;;;;;;5051485;28;20713;-75
2022/08/25 06:03:42;;;;;;;7.78;7.03;;;;;;;;;;5067086;28;20241;-76
2022/08/25 06:06:12;;;;;;;8.65;7.10;;;;;;;;;;5097428;28;20790;-75
2022/08/25 06:08:43;;;;;;;7.50;6.50;;;;;;;;;;5101773;27;21386;-75
2022/08/25 06:11:09;;;;;;;7.60;6.68;;;;;;;;;;5052050;28;20225;-74
2022/08/25 06:13:38;;;;;;;8.77;6.47;;;;;;;;;;5081262;28;20225;-77
2022/08/25 06:16:06;;;;;;;7.97;7.28;;;;;;;;;;5036816;28;20840;-75
2022/08/25 06:18:34;;;;;;;7.28;6.47;;;;;;;;;;5062234;28;20226;-73
2022/08/25 06:21:11;;;;;;;7.15;6.38;;;;;;;;;;5057549;28;20220;-76
2022/08/25 06:23:37;;;;;;;8.25;6.95;;;;;;;;;;5081269;28;20237;-75
2022/08/25 06:26:05;;;;;;;7.45;6.50;;;;;;;;;;5064455;28;20220;-76
2022/08/25 06:28:30;;;;;;;10.45;6.70;;;;;;;;;;5078635;28;20222;-75
2022/08/25 06:31:00;;;;;;;8.32;6.57;;;;;;;;;;5072994;28;20221;-75
2022/08/25 06:33:28;;;;;;;7.70;6.57;;;;;;;;;;5061147;28;20762;-75
2022/08/25 06:35:57;;;;;;;9.07;6.28;;;;;;;;;;5063516;28;20239;-75
2022/08/25 06:38:23;;;;;;;6.90;6.15;;;;;;;;;;5049289;28;20230;-75
2022/08/25 06:40:51;;;;;;;7.72;6.20;;;;;;;;;;5063426;28;20232;-75
2022/08/25 06:43:18;;;;;;;8.30;6.75;;;;;;;;;;5052708;28;20234;-75
2022/08/25 06:45:44;;;;;;;9.05;6.25;;;;;;;;;;5051455;28;20232;-75
2022/08/25 06:48:09;;;;;;;8.20;6.45;;;;;;;;;;5064720;28;20225;-75
2022/08/25 06:50:38;;;;;;;8.60;5.93;;;;;;;;;;5050141;28;20221;-75
2022/08/25 06:53:03;;;;;;;5.97;5.32;;;;;;;;;;5063340;28;20242;-75
2022/08/25 06:55:29;;;;;;;7.97;6.00;;;;;;;;;;5054785;27;20326;-72
2022/08/25 06:57:54;;;;;;;6.80;6.10;;;;;;;;;;5046842;28;20715;-72
2022/08/25 07:00:20;;;;;;;8.50;6.50;;;;;;;;;;5045469;28;20224;-70
2022/08/25 07:02:46;;;;;;;7.15;5.93;;;;;;;;;;5064325;28;20233;-73
2022/08/25 07:05:14;;;;;;;9.05;5.85;;;;;;;;;;5055835;28;20225;-74
2022/08/25 07:07:39;;;;;;;8.90;6.72;;;;;;;;;;5055376;28;20228;-75
2022/08/25 07:10:21;;;;;;;8.48;6.35;;;;;;;;;;5065825;28;20770;-77
2022/08/25 07:12:47;;;;;;;7.07;5.97;;;;;;;;;;5057783;28;20217;-73
2022/08/25 07:15:15;;;;;;;9.63;5.57;;;;;;;;;;5051944;28;20290;-75
2022/08/25 07:17:42;;;;;;;7.68;5.75;;;;;;;;;;5034762;28;20221;-75
2022/08/25 07:20:14;;;;;;;10.20;5.72;;;;;;;;;;5034075;28;20247;-75
2022/08/25 07:22:51;;;;;;;6.35;5.72;;;;;;;;;;5053117;28;20723;-74
2022/08/25 07:25:17;;;;;;;6.63;5.70;;;;;;;;;;5057522;28;20609;-77
2022/08/25 07:27:43;;;;;;;8.25;6.07;;;;;;;;;;5085757;28;20225;-75
2022/08/25 07:30:09;;;;;;;6.43;5.47;;;;;;;;;;5050996;28;20253;-72
2022/08/25 07:32:38;;;;;;;7.65;5.25;;;;;;;;;;5044453;28;20221;-74
2022/08/25 07:35:14;;;;;;;8.77;6.20;;;;;;;;;;5039597;28;20230;-75
2022/08/25 07:37:44;;;;;;;10.20;6.22;;;;;;;;;;5044177;28;20620;-76
2022/08/25 07:40:14;;;;;;;6.63;5.60;;;;;;;;;;5054157;28;20221;-73
2022/08/25 07:42:42;;;;;;;10.18;5.65;;;;;;;;;;5066040;28;20270;-74
2022/08/25 07:45:10;;;;;;;8.35;5.45;;;;;;;;;;5054864;28;20801;-76
2022/08/25 07:47:37;;;;;;;6.35;5.43;;;;;;;;;;5034724;28;20229;-74
2022/08/25 07:50:08;;;;;;;7.65;5.45;;;;;;;;;;5082023;28;20229;-74
2022/08/25 07:52:33;;;;;;;9.98;5.10;;;;;;;;;;5049196;28;20895;-72
2022/08/25 07:54:59;;;;;;;6.60;5.38;;;;;;;;;;5072879;28;20218;-76
2022/08/25 07:57:37;;;;;;;7.88;5.18;;;;;;;;;;5061354;28;20236;-74
2022/08/25 08:00:05;;;;;;;6.13;5.53;;;;;;;;;;5085421;27;20212;-78
2022/08/25 08:02:38;;;;;;;6.88;5.15;;;;;;;;;;5086502;28;20226;-75
2022/08/25 08:05:06;;;;;;;6.57;5.22;;;;;;;;;;5043868;28;20229;-76
2022/08/25 08:07:32;;;;;;;6.40;5.00;;;;;;;;;;5068668;28;21011;-74
2022/08/25 08:09:58;;;;;;;5.72;5.13;;;;;;;;;;5052239;28;20220;-73
2022/08/25 08:12:26;;;;;;;5.78;5.18;;;;;;;;;;5058559;28;20301;-74
2022/08/25 08:14:54;;;;;;;5.28;4.68;;;;;;;;;;5057330;28;20225;-75
2022/08/25 08:17:24;;;;;;;5.97;5.10;;;;;;;;;;5044927;28;20223;-75
2022/08/25 08:19:52;;;;;;;6.68;5.50;;;;;;;;;;5075356;28;20297;-74
2022/08/25 08:22:18;;;;;;;7.32;5.47;;;;;;;;;;5050636;28;20715;-74
2022/08/25 08:24:46;;;;;;;8.55;5.10;;;;;;;;;;5060154;28;20259;-73
2022/08/25 08:27:12;;;;;;;7.55;4.75;;;;;;;;;;5052324;28;20214;-71
2022/08/25 08:29:38;;;;;;;6.95;5.10;;;;;;;;;;5051986;28;20301;-73
2022/08/25 08:32:05;;;;;;;7.95;5.07;;;;;;;;;;5046437;28;20217;-73
2022/08/25 08:34:31;;;;;;;5.55;4.68;;;;;;;;;;5085473;28;20221;-73
2022/08/25 08:37:02;;;;;;;5.03;4.63;;;;;;;;;;5064027;28;20217;-73
2022/08/25 08:39:28;;;;;;;8.65;5.22;;;;;;;;;;5068002;28;20239;-74
2022/08/25 08:42:18;;;;;;;6.05;5.18;;;;;;;;;;5062399;28;20718;-74
2022/08/25 08:44:45;;;;;;;8.90;5.28;;;;;;;;;;5079193;28;20711;-76
2022/08/25 08:47:36;;;;;;;5.78;5.00;;;;;;;;;;5060740;28;20333;-74
2022/08/25 08:50:20;;;;;;;10.35;5.47;;;;;;;;;;5066863;28;20295;-75
2022/08/25 08:53:21;;;;;;;8.07;5.00;;;;;;;;;;5094668;28;20229;-76
2022/08/25 08:55:48;;;;;;;10.27;5.68;;;;;;;;;;5050720;28;20311;-76
2022/08/25 08:58:20;;;;;;;7.32;5.18;;;;;;;;;;5042370;28;20217;-76
2022/08/25 09:00:53;;;;;;;6.43;5.03;;;;;;;;;;5086903;28;20225;-76
2022/08/25 09:03:33;;;;;;;7.00;5.50;;;;;;;;;;5057378;28;20266;-75
2022/08/25 09:06:04;;;;;;;5.72;5.20;;;;;;;;;;5068939;28;20695;-75
2022/08/25 09:08:30;;;;;;;6.63;5.32;;;;;;;;;;5062420;28;20245;-75
2022/08/25 09:11:07;;;;;;;8.02;5.88;;;;;;;;;;5032531;28;20249;-75
2022/08/25 09:14:10;;;;;;;6.30;5.70;;;;;;;;;;5044353;28;20224;-74
2022/08/25 09:17:00;;;;;;;6.40;4.80;;;;;;;;;;5077730;28;20237;-78
2022/08/25 09:19:42;;;;;;;6.63;5.03;;;;;;;;;;5050626;28;20286;-77
2022/08/25 09:22:22;;;;;;;6.82;5.30;;;;;;;;;;5088578;28;20721;-77
2022/08/25 09:25:02;;;;;;;5.70;4.97;;;;;;;;;;5091692;28;20213;-77
2022/08/25 09:27:45;;;;;;;6.50;5.40;;;;;;;;;;5076571;28;20225;-76
2022/08/25 09:30:14;;;;;;;7.60;4.90;;;;;;;;;;5069249;28;20209;-77
2022/08/25 09:32:42;;;;;;;9.27;5.47;;;;;;;;;;5044525;28;20233;-76
2022/08/25 09:35:34;;;;;;;6.40;5.18;;;;;;;;;;5055164;28;21022;-77
2022/08/25 09:38:10;;;;;;;7.85;5.68;;;;;;;;;;5074998;28;20222;-77
2022/08/25 09:40:43;;;;;;;9.75;5.53;;;;;;;;;;5054546;28;20234;-77
2022/08/25 09:43:21;;;;;;;6.47;5.88;;;;;;;;;;5047571;28;20230;-77
2022/08/25 09:45:58;;;;;;;10.00;5.68;;;;;;;;;;5082344;28;20305;-78
2022/08/25 09:48:42;;;;;;;6.25;5.65;;;;;;;;;;5057552;28;20229;-77
2022/08/25 09:51:27;;;;;;;7.43;5.80;;;;;;;;;;5059981;28;20317;-77
2022/08/25 09:54:00;;;;;;;8.93;5.35;;;;;;;;;;5071146;28;20328;-76
2022/08/25 09:56:28;;;;;;;8.70;5.78;;;;;;;;;;5057624;27;20951;-78
2022/08/25 09:59:24;;;;;;;7.63;5.63;;;;;;;;;;5060931;28;20300;-79
2022/08/25 10:01:52;;;;;;;5.97;5.38;;;;;;;;;;5080035;28;20285;-79
2022/08/25 10:04:32;;;;;;;10.27;5.63;;;;;;;;;;5043942;28;20250;-79
2022/08/25 10:07:03;;;;;;;7.05;5.63;;;;;;;;;;5067616;28;20218;-77
2022/08/25 10:09:40;;;;;;;10.07;6.10;;;;;;;;;;5069355;28;20221;-77
2022/08/25 10:12:16;;;;;;;7.20;5.43;;;;;;;;;;5057962;28;20972;-79
2022/08/25 10:14:42;;;;;;;7.38;5.30;;;;;;;;;;5042467;27;20291;-79
2022/08/25 10:17:24;;;;;;;6.95;6.10;;;;;;;;;;5057462;28;20335;-76
2022/08/25 10:19:55;;;;;;;6.50;5.65;;;;;;;;;;5071578;28;20260;-76
2022/08/25 10:22:24;;;;;;;5.93;5.30;;;;;;;;;;5077123;28;20253;-78
2022/08/25 10:24:54;;;;;;;7.63;5.90;;;;;;;;;;5050679;28;20695;-78
2022/08/25 10:27:51;;;;;;;6.78;5.68;;;;;;;;;;5052813;28;20794;-80
2022/08/25 10:30:46;;;;;;;6.32;5.70;;;;;;;;;;5051358;28;20257;-78
2022/08/25 10:33:22;;;;;;;10.13;5.38;;;;;;;;;;5079138;28;20670;-77
2022/08/25 10:36:31;;;;;;;9.35;5.28;;;;;;;;;;5057369;28;20213;-80
2022/08/25 10:38:58;;;;;;;6.95;5.25;;;;;;;;;;5020357;28;20788;-78
2022/08/25 10:41:36;;;;;;;6.55;5.03;;;;;;;;;;5035748;28;20332;-77
2022/08/25 10:47:27;;;;;;;6.93;5.18;;;;;;;;;;5087460;28;20221;-77
2022/08/25 10:50:07;;;;;;;5.05;4.35;;;;;;;;;;5082462;28;20311;-78
2022/08/25 10:53:02;;;;;;;7.72;4.45;;;;;;;;;;5055287;28;20302;-76
2022/08/25 10:56:04;;;;;;;6.13;4.80;;;;;;;;;;5084914;28;20654;-77
2022/08/25 10:59:05;;;;;;;5.13;4.63;;;;;;;;;;5071235;28;20221;-76
2022/08/25 11:01:34;;;;;;;8.88;4.57;;;;;;;;;;5069226;28;20222;-76
2022/08/25 11:04:18;;;;;;;5.45;4.22;;;;;;;;;;5076851;28;20241;-76
2022/08/25 11:07:02;;;;;;;4.47;4.07;;;;;;;;;;5055947;28;20224;-78
2022/08/25 11:09:37;;;;;;;6.45;4.38;;;;;;;;;;5072233;28;20265;-77
2022/08/25 11:12:12;;;;;;;6.30;4.30;;;;;;;;;;5064619;28;20225;-76
2022/08/25 11:14:41;;;;;;;5.38;4.38;;;;;;;;;;5054506;28;20254;-77
2022/08/25 11:17:21;;;;;;;7.50;4.30;;;;;;;;;;5078000;28;20225;-80
2022/08/25 11:19:50;;;;;;;4.72;4.30;;;;;;;;;;5088505;28;20312;-79
2022/08/25 11:22:29;;;;;;;6.80;3.90;;;;;;;;;;5049638;28;20245;-78
2022/08/25 11:25:04;;;;;;;6.53;4.03;;;;;;;;;;5072741;28;20218;-78
2022/08/25 11:27:42;;;;;;;4.97;3.92;;;;;;;;;;5086635;28;20714;-77
2022/08/25 11:30:10;;;;;;;5.43;3.90;;;;;;;;;;5034289;28;20218;-75
2022/08/25 11:32:36;;;;;;;3.92;3.47;;;;;;;;;;5048118;28;21027;-75
2022/08/25 11:35:06;;;;;;;4.10;3.70;;;;;;;;;;5034592;28;20939;-76
2022/08/25 11:37:45;;;;;;;7.75;4.10;;;;;;;;;;5055024;28;20301;-77
2022/08/25 11:40:39;;;;;;;5.22;3.70;;;;;;;;;;5050276;28;20241;-77
2022/08/25 11:43:34;;;;;;;4.93;4.20;;;;;;;;;;5070097;28;20233;-76
2022/08/25 11:46:13;;;;;;;4.55;3.60;;;;;;;;;;5082455;28;20247;-77
2022/08/25 11:48:58;;;;;;;7.22;3.80;;;;;;;;;;5072277;28;20236;-78
2022/08/25 11:51:30;;;;;;;5.63;4.05;;;;;;;;;;5076442;28;20239;-77
2022/08/25 11:54:27;;;;;;;7.38;4.10;;;;;;;;;;5085556;28;20226;-77
2022/08/25 11:56:55;;;;;;;5.80;3.67;;;;;;;;;;5084919;28;20736;-77
2022/08/25 11:59:48;;;;;;;5.35;3.72;;;;;;;;;;5067527;28;20263;-78
2022/08/25 12:02:36;;;;;;;6.55;3.80;;;;;;;;;;5092209;28;20230;-78
2022/08/25 12:05:17;;;;;;;7.13;4.15;;;;;;;;;;5065091;28;20249;-77
2022/08/25 12:11:45;;;;;;;5.35;3.90;;;;;;;;;;5089618;28;20225;-78
2022/08/25 12:14:38;;;;;;;4.53;4.07;;;;;;;;;;5011701;28;20228;-76
2022/08/25 12:17:17;;;;;;;5.28;3.75;;;;;;;;;;4992249;28;20229;-76
2022/08/25 12:19:43;;;;;;;4.43;4.03;;;;;;;;;;5073961;28;20225;-77
2022/08/25 12:22:14;;;;;;;6.15;4.40;;;;;;;;;;5074930;28;20224;-75
2022/08/25 12:24:43;;;;;;;7.65;4.35;;;;;;;;;;5079362;28;20225;-77
2022/08/25 12:27:30;;;;;;;8.75;4.10;;;;;;;;;;5067583;28;20221;-76
2022/08/25 12:30:14;;;;;;;3.88;3.58;;;;;;;;;;5089411;28;20218;-76
2022/08/25 12:33:04;;;;;;;4.88;4.18;;;;;;;;;;5068429;28;20226;-78
2022/08/25 12:35:48;;;;;;;5.90;4.03;;;;;;;;;;5084574;28;20222;-77
2022/08/25 12:38:26;;;;;;;7.18;4.00;;;;;;;;;;5081349;28;20646;-76
2022/08/25 12:40:53;;;;;;;5.07;4.13;;;;;;;;;;5078821;28;20258;-77
2022/08/25 12:43:18;;;;;;;6.15;3.90;;;;;;;;;;5074853;28;20260;-76
2022/08/25 12:45:45;;;;;;;12.90;4.45;;;;;;;;;;5087200;28;20257;-75
2022/08/25 12:48:26;;;;;;;4.88;3.80;;;;;;;;;;5079505;28;20883;-76
2022/08/25 12:51:00;;;;;;;6.65;4.20;;;;;;;;;;5075439;28;20226;-74
2022/08/25 12:53:43;;;;;;;6.95;4.10;;;;;;;;;;5053632;28;20737;-74
2022/08/25 12:56:30;;;;;;;5.57;4.07;;;;;;;;;;5088546;28;20298;-75
2022/08/25 12:59:15;;;;;;;4.45;3.95;;;;;;;;;;5050211;28;20215;-72
2022/08/25 13:01:44;;;;;;;4.57;3.97;;;;;;;;;;5066602;28;20220;-70
2022/08/25 13:04:45;;;;;;;5.50;4.13;;;;;;;;;;5096157;28;20260;-70
2022/08/25 13:07:33;;;;;;;6.30;3.65;;;;;;;;;;5069544;28;20344;-73
2022/08/25 13:10:10;;;;;;;5.72;3.85;;;;;;;;;;5082709;28;20225;-74
2022/08/25 13:12:45;;;;;;;4.53;3.75;;;;;;;;;;5098489;28;20231;-71
2022/08/25 13:15:26;;;;;;;4.85;3.85;;;;;;;;;;5051790;28;20272;-72
2022/08/25 13:17:54;;;;;;;5.32;4.15;;;;;;;;;;5070272;28;20245;-71
2022/08/25 13:20:25;;;;;;;4.82;3.97;;;;;;;;;;5056020;28;20209;-71
2022/08/25 13:22:57;;;;;;;6.38;4.25;;;;;;;;;;5057056;28;20252;-70
2022/08/25 13:25:23;;;;;;;5.10;3.90;;;;;;;;;;5055486;28;20333;-71
2022/08/25 13:27:50;;;;;;;6.68;4.20;;;;;;;;;;5074149;28;20281;-72
2022/08/25 13:30:28;;;;;;;4.20;3.65;;;;;;;;;;5057522;28;20224;-73
2022/08/25 13:32:56;;;;;;;9.70;4.03;;;;;;;;;;5077573;28;20332;-72
2022/08/25 13:35:29;;;;;;;4.38;3.90;;;;;;;;;;5050830;28;20294;-73
2022/08/25 13:38:11;;;;;;;5.15;4.00;;;;;;;;;;5058456;27;20230;-73
2022/08/25 13:40:37;;;;;;;4.32;3.80;;;;;;;;;;5057303;28;20237;-72
2022/08/25 13:43:04;;;;;;;5.72;3.75;;;;;;;;;;5047605;28;20236;-72
2022/08/25 13:45:36;;;;;;;5.22;4.18;;;;;;;;;;5033859;28;20297;-71
2022/08/25 13:48:02;;;;;;;5.07;4.00;;;;;;;;;;5056626;28;20625;-71
2022/08/25 13:50:33;;;;;;;5.68;4.00;;;;;;;;;;5044252;28;20224;-71
2022/08/25 13:53:04;;;;;;;6.43;4.00;;;;;;;;;;5050771;27;20226;-72
2022/08/25 13:55:54;;;;;;;5.03;3.90;;;;;;;;;;5073437;28;20225;-72
2022/08/25 13:58:25;;;;;;;5.53;3.83;;;;;;;;;;5036874;28;20226;-72
2022/08/25 14:01:07;;;;;;;6.75;3.60;;;;;;;;;;5062237;28;20276;-72
2022/08/25 14:03:35;;;;;;;4.90;4.00;;;;;;;;;;5029350;28;20248;-71
2022/08/25 14:06:13;;;;;;;5.38;4.03;;;;;;;;;;5072347;28;20221;-72
2022/08/25 14:08:45;;;;;;;6.05;4.35;;;;;;;;;;5100162;28;20222;-72
2022/08/25 14:11:26;;;;;;;5.55;3.72;;;;;;;;;;5040714;28;20214;-72
2022/08/25 14:14:07;;;;;;;5.50;3.92;;;;;;;;;;5100463;28;20230;-72
2022/08/25 14:16:57;;;;;;;8.95;4.03;;;;;;;;;;5070073;28;20228;-72
2022/08/25 14:19:24;;;;;;;4.18;3.78;;;;;;;;;;5050622;28;20225;-73
2022/08/25 14:21:52;;;;;;;7.78;4.25;;;;;;;;;;5073040;28;20213;-73
2022/08/25 14:24:21;;;;;;;6.60;3.97;;;;;;;;;;5037910;28;20253;-71
2022/08/25 14:26:50;;;;;;;6.93;4.00;;;;;;;;;;5067594;28;20220;-72
2022/08/25 14:29:16;;;;;;;9.45;4.40;;;;;;;;;;5070048;28;20225;-71
2022/08/25 14:31:44;;;;;;;9.35;3.97;;;;;;;;;;5050488;28;20226;-71
2022/08/25 14:34:13;;;;;;;5.38;4.10;;;;;;;;;;5060719;28;20233;-73
2022/08/25 14:36:41;;;;;;;5.13;4.07;;;;;;;;;;5071277;28;20232;-72
2022/08/25 14:39:13;;;;;;;7.88;4.30;;;;;;;;;;5062910;28;20222;-72
2022/08/25 14:41:39;;;;;;;6.45;4.15;;;;;;;;;;5073363;28;20271;-73
2022/08/25 14:44:08;;;;;;;4.95;3.72;;;;;;;;;;5049986;28;20236;-72
2022/08/25 14:46:36;;;;;;;5.90;3.88;;;;;;;;;;5032814;28;20218;-72
2022/08/25 14:49:05;;;;;;;5.63;4.13;;;;;;;;;;5049273;28;20225;-71
2022/08/25 14:51:33;;;;;;;5.38;3.80;;;;;;;;;;5055785;28;20602;-70
2022/08/25 14:54:03;;;;;;;7.97;4.28;;;;;;;;;;5085333;28;20214;-71
2022/08/25 14:56:30;;;;;;;5.05;3.85;;;;;;;;;;5046934;28;20228;-71
2022/08/25 14:58:56;;;;;;;8.63;4.22;;;;;;;;;;5056209;28;20233;-68
2022/08/25 15:01:22;;;;;;;6.32;3.95;;;;;;;;;;5031419;28;20232;-73
2022/08/25 15:03:53;;;;;;;5.60;4.88;;;;;;;;;;5051837;28;20263;-71
2022/08/25 15:06:19;;;;;;;6.57;4.20;;;;;;;;;;5071256;28;20308;-73
2022/08/25 15:11:29;;;;;;;5.45;4.00;;;;;;;;;;5070149;28;20226;-73
2022/08/25 15:14:00;;;;;;;6.90;4.28;;;;;;;;;;5070106;28;20264;-75
2022/08/25 15:16:45;;;;;;;7.10;4.30;;;;;;;;;;5053591;28;20222;-75
2022/08/25 15:19:13;;;;;;;6.53;4.03;;;;;;;;;;5079985;28;20230;-72
2022/08/25 15:21:39;;;;;;;7.57;4.60;;;;;;;;;;5052183;28;20886;-72
2022/08/25 15:24:05;;;;;;;40.45;36.22;;;;;;;;;;5045338;28;20235;-73
2022/08/25 15:26:42;;;;;;;29.10;21.90;;;;;;;;;;5063831;28;20221;-74